Weather at Asheboro Regional Airport

Public forecast

Using degrees Fahrenheit for public forecast. Weather courtesy of forecast.io.

Current aviation weather report (METAR) for Asheboro Regional Airport

2024/06/22 00:45 (retrieved 19 minutes ago)

KHBI 220045Z AUTO 00000KT 10SM CLR 25/18 A3018 RMK AO2 T02510182

Closest aviation forecast (TAF) to Asheboro Regional Airport

Forecast is more than 6 hours old.

Closest forecast is Pope Field, 51.9 nm (96.2 km) ESE.

2024/06/21 17:26 (retrieved 8 hours ago)

TAF KPOB 211700Z 2117/2223 11007KT 9999 SCT050 QNH3013INS BECMG 2200/2201 15010KT 9999 SCT040 QNH3015INS BECMG 2204/2205 VRB05KT 9999 FEW020 SCT035 QNH3015INS BECMG 2208/2209 VRB04KT 9000 BR SCT006 BKN013 QNH3016INS BECMG 2210/2211 VRB03KT 8000 BR BKN006 OVC013 QNH3016INS BECMG 2212/2213 24007KT 9999 NSW FEW025 FEW040 QNH3011INS BECMG 2217/2218 22009KT 9999 SCT045 BKN060 QNH3001INS TX34/2120Z TN22/2210Z